createdAt,value
2023-05-06T00:04:26.864Z,51.00
2023-05-06T00:09:31.062Z,50.90
2023-05-06T00:14:33.881Z,50.80
2023-05-06T00:19:36.720Z,50.70
2023-05-06T00:24:41.004Z,51.10
2023-05-06T00:29:43.885Z,51.30
2023-05-06T00:34:47.028Z,51.10
2023-05-06T00:39:51.170Z,51.10
2023-05-06T00:44:53.981Z,51.20
2023-05-06T00:49:57.329Z,51.10
2023-05-06T00:55:01.525Z,51.30
2023-05-06T01:00:07.178Z,51.20
2023-05-06T01:05:12.244Z,51.40
2023-05-06T01:10:22.504Z,51.50
2023-05-06T01:15:30.356Z,51.30
2023-05-06T01:20:34.329Z,51.40
2023-05-06T01:25:41.676Z,51.40
2023-05-06T01:30:50.836Z,51.50
2023-05-06T01:35:56.838Z,51.60
2023-05-06T01:41:02.515Z,51.60
2023-05-06T01:46:06.447Z,51.60
2023-05-06T01:51:09.457Z,51.40
2023-05-06T01:56:14.128Z,51.60
2023-05-06T02:01:17.889Z,51.60
2023-05-06T02:06:20.720Z,51.50
2023-05-06T02:11:24.894Z,51.40
2023-05-06T02:16:29.558Z,51.60
2023-05-06T02:21:33.064Z,51.50
2023-05-06T02:26:37.294Z,51.70
2023-05-06T02:31:40.205Z,51.70
2023-05-06T02:36:43.092Z,51.70
2023-05-06T02:41:47.334Z,51.90
2023-05-06T02:46:50.171Z,51.80
2023-05-06T02:51:53.002Z,51.60
2023-05-06T02:57:00.061Z,51.60
2023-05-06T03:02:03.076Z,51.70
2023-05-06T03:07:05.913Z,51.60
2023-05-06T03:12:10.050Z,51.80
2023-05-06T03:17:12.927Z,52.00
2023-05-06T03:22:15.710Z,51.60
2023-05-06T03:27:20.510Z,51.90
2023-05-06T03:32:23.335Z,52.00
2023-05-06T03:37:26.422Z,51.90
2023-05-06T03:42:31.071Z,52.10
2023-05-06T03:47:34.024Z,52.00
2023-05-06T03:52:36.941Z,52.00
2023-05-06T03:57:41.164Z,51.80
2023-05-06T04:02:44.111Z,51.90
2023-05-06T04:07:46.922Z,51.70
2023-05-06T04:12:51.175Z,52.00
2023-05-06T04:17:54.046Z,52.10
2023-05-06T04:22:56.824Z,51.80
2023-05-06T04:28:01.014Z,51.90
2023-05-06T04:33:04.043Z,51.80
2023-05-06T04:38:07.180Z,51.90
2023-05-06T04:43:12.069Z,52.00
2023-05-06T04:48:16.217Z,51.90
2023-05-06T04:53:19.058Z,51.90
2023-05-06T04:58:23.240Z,52.00
2023-05-06T05:03:26.216Z,51.80
2023-05-06T05:08:29.157Z,52.20
2023-05-06T05:13:33.398Z,51.90
2023-05-06T05:18:36.247Z,51.70
2023-05-06T05:23:39.085Z,51.90
2023-05-06T05:28:44.394Z,51.80
2023-05-06T05:33:47.291Z,52.00
2023-05-06T05:38:50.249Z,51.80
2023-05-06T05:43:54.450Z,51.70
2023-05-06T05:48:57.283Z,51.90
2023-05-06T05:54:00.162Z,51.60
2023-05-06T05:59:04.536Z,51.90
2023-05-06T06:04:07.498Z,51.80
2023-05-06T06:09:11.105Z,51.90
2023-05-06T06:14:15.350Z,51.70
2023-05-06T06:19:18.159Z,51.80
2023-05-06T06:24:21.075Z,51.80
2023-05-06T06:29:25.376Z,51.70
2023-05-06T06:34:28.245Z,51.60
2023-05-06T06:39:31.018Z,51.70
2023-05-06T06:44:35.707Z,51.50
2023-05-06T06:49:41.187Z,51.50
2023-05-06T06:54:44.117Z,51.60
2023-05-06T06:59:50.389Z,51.70
2023-05-06T07:04:53.197Z,51.70
2023-05-06T07:09:56.079Z,51.70
2023-05-06T07:15:01.548Z,51.60
2023-05-06T07:20:04.863Z,51.60
2023-05-06T07:25:08.808Z,51.50
2023-05-06T07:30:13.847Z,51.60
2023-05-06T07:35:16.678Z,51.70
2023-05-06T07:40:19.469Z,51.60
2023-05-06T07:45:25.122Z,51.50
2023-05-06T07:50:27.922Z,51.50
2023-05-06T07:55:32.014Z,51.40
2023-05-06T08:00:36.928Z,51.70
2023-05-06T08:05:39.726Z,51.50
2023-05-06T08:10:42.549Z,51.40
2023-05-06T08:15:46.894Z,51.60
2023-05-06T08:20:49.766Z,51.30
2023-05-06T08:25:52.583Z,51.40
2023-05-06T08:30:56.765Z,51.30
2023-05-06T08:35:59.752Z,51.20
2023-05-06T08:41:10.652Z,51.50
2023-05-06T08:46:15.236Z,51.30
2023-05-06T08:51:18.916Z,51.30
2023-05-06T08:56:23.102Z,51.40
2023-05-06T09:01:28.460Z,51.30
2023-05-06T09:06:31.503Z,51.50
2023-05-06T09:11:34.358Z,51.40
2023-05-06T09:16:39.195Z,51.30
2023-05-06T09:21:43.935Z,51.40
2023-05-06T09:26:48.233Z,51.30
2023-05-06T09:31:56.442Z,51.10
2023-05-06T09:36:59.306Z,51.30
2023-05-06T09:42:02.252Z,51.30
2023-05-06T09:47:07.055Z,51.20
2023-05-06T09:52:10.083Z,51.10
2023-05-06T09:57:14.003Z,51.10
2023-05-06T10:02:18.581Z,51.20
2023-05-06T10:07:23.614Z,51.30
2023-05-06T10:12:26.561Z,51.40
2023-05-06T10:17:32.749Z,51.20
2023-05-06T10:22:44.973Z,51.10
2023-05-06T10:27:49.724Z,51.00
2023-05-06T10:32:57.884Z,51.20
2023-05-06T10:38:01.773Z,51.00
2023-05-06T10:43:27.388Z,51.10
2023-05-06T10:48:32.312Z,50.90
2023-05-06T10:53:59.817Z,51.10
2023-05-06T10:59:06.928Z,51.20
2023-05-06T11:04:12.695Z,51.00
2023-05-06T11:09:19.903Z,51.10
2023-05-06T11:14:27.287Z,51.10
2023-05-06T11:19:32.122Z,50.90
2023-05-06T11:24:40.184Z,51.00
2023-05-06T11:29:44.296Z,51.10
2023-05-06T11:34:48.432Z,51.10
2023-05-06T11:39:51.257Z,51.00
2023-05-06T11:44:55.916Z,51.00
2023-05-06T11:50:06.385Z,51.00
2023-05-06T11:55:10.936Z,50.80
2023-05-06T12:00:14.889Z,50.90
2023-05-06T12:05:23.608Z,51.20
2023-05-06T12:10:26.493Z,51.10
2023-05-06T12:15:29.759Z,50.90
2023-05-06T12:20:33.911Z,50.90
2023-05-06T12:25:36.747Z,51.20
2023-05-06T12:30:39.598Z,51.10
2023-05-06T12:35:43.751Z,50.90
2023-05-06T12:40:54.049Z,50.80
2023-05-06T12:46:07.147Z,50.80
2023-05-06T12:51:21.347Z,50.70
2023-05-06T12:56:24.360Z,50.80
2023-05-06T13:01:27.428Z,50.70
2023-05-06T13:06:33.017Z,50.70
2023-05-06T13:11:35.870Z,50.80
2023-05-06T13:16:39.931Z,50.60
2023-05-06T13:21:44.258Z,50.90
2023-05-06T13:26:47.087Z,50.80
2023-05-06T13:31:49.884Z,51.10
2023-05-06T13:36:54.638Z,50.80
2023-05-06T13:41:57.490Z,50.90
2023-05-06T13:47:00.448Z,50.80
2023-05-06T13:52:05.774Z,50.80
2023-05-06T13:57:10.803Z,50.80
2023-05-06T14:02:13.790Z,50.00
2023-05-06T14:07:18.249Z,49.70
2023-05-06T14:12:22.853Z,49.70
2023-05-06T14:17:25.870Z,49.70
2023-05-06T14:22:30.155Z,49.70
2023-05-06T14:27:32.968Z,49.40
2023-05-06T14:32:35.850Z,49.30
2023-05-06T14:37:40.088Z,49.40
2023-05-06T14:42:42.909Z,49.30
2023-05-06T14:47:45.992Z,48.80
2023-05-06T14:52:50.533Z,48.70
2023-05-06T14:57:53.800Z,48.50
2023-05-06T15:02:56.677Z,48.20
2023-05-06T15:08:00.891Z,47.90
2023-05-06T15:13:03.783Z,45.50
2023-05-06T15:18:06.779Z,42.00
2023-05-06T15:23:10.998Z,40.20
2023-05-06T15:28:13.837Z,39.80
2023-05-06T15:33:16.675Z,40.00
2023-05-06T15:38:20.943Z,39.50
2023-05-06T15:43:24.637Z,38.10
2023-05-06T15:48:29.308Z,40.30
2023-05-06T15:53:33.497Z,39.90
2023-05-06T15:58:36.728Z,40.90
2023-05-06T16:03:41.138Z,42.80
2023-05-06T16:08:45.509Z,44.60
2023-05-06T16:13:48.489Z,44.90
2023-05-06T16:18:51.560Z,46.50
2023-05-06T16:23:55.741Z,46.50
2023-05-06T16:28:59.506Z,47.00
2023-05-06T16:34:02.375Z,47.30
2023-05-06T16:39:08.135Z,44.30
2023-05-06T16:44:10.918Z,44.30
2023-05-06T16:49:13.757Z,44.80
2023-05-06T16:54:17.953Z,46.70
2023-05-06T16:59:22.397Z,47.10
2023-05-06T17:04:25.927Z,47.40
2023-05-06T17:09:30.156Z,46.60
2023-05-06T17:14:32.983Z,47.30
2023-05-06T17:19:35.834Z,48.30
2023-05-06T17:24:39.986Z,48.40
2023-05-06T17:29:42.845Z,48.70
2023-05-06T17:34:46.938Z,49.00
2023-05-06T17:39:52.321Z,49.00
2023-05-06T17:44:55.216Z,48.90
2023-05-06T17:49:58.028Z,49.10
2023-05-06T17:55:11.797Z,49.20
2023-05-06T18:00:19.332Z,49.30
2023-05-06T18:05:24.566Z,49.60
2023-05-06T18:10:29.440Z,49.60
2023-05-06T18:15:32.966Z,49.80
2023-05-06T18:20:35.816Z,49.80
2023-05-06T18:25:39.966Z,49.70
2023-05-06T18:30:42.745Z,50.00
2023-05-06T18:35:45.668Z,50.00
2023-05-06T18:40:50.247Z,50.10
2023-05-06T18:45:53.228Z,50.20
2023-05-06T18:50:56.101Z,50.10
2023-05-06T18:56:00.305Z,50.20
2023-05-06T19:01:03.184Z,50.10
2023-05-06T19:06:09.167Z,50.30
2023-05-06T19:11:18.090Z,50.30
2023-05-06T19:16:21.722Z,50.40
2023-05-06T19:21:24.601Z,50.60
2023-05-06T19:26:28.867Z,50.60
2023-05-06T19:31:31.767Z,50.70
2023-05-06T19:36:34.660Z,50.60
2023-05-06T19:41:38.840Z,50.60
2023-05-06T19:46:41.788Z,50.90
2023-05-06T19:51:44.825Z,51.90
2023-05-06T19:56:49.185Z,51.90
2023-05-06T20:01:53.217Z,51.80
2023-05-06T20:06:57.929Z,51.90
2023-05-06T20:12:03.342Z,51.10
2023-05-06T20:17:06.242Z,52.00
2023-05-06T20:22:09.312Z,52.00
2023-05-06T20:27:13.544Z,52.30
2023-05-06T20:32:16.340Z,52.50
2023-05-06T20:37:20.006Z,52.30
2023-05-06T20:42:24.209Z,52.40
2023-05-06T20:47:27.131Z,52.50
2023-05-06T20:52:30.027Z,52.40
2023-05-06T20:57:34.213Z,52.50
2023-05-06T21:02:41.401Z,52.40
2023-05-06T21:07:44.867Z,52.50
2023-05-06T21:12:49.541Z,52.80
2023-05-06T21:17:52.448Z,52.70
2023-05-06T21:22:56.375Z,52.70
2023-05-06T21:28:04.925Z,53.00
2023-05-06T21:33:10.906Z,52.70
2023-05-06T21:38:13.859Z,52.80
2023-05-06T21:43:18.262Z,53.00
2023-05-06T21:48:21.369Z,52.80
2023-05-06T21:53:24.220Z,52.90
2023-05-06T21:58:28.404Z,53.00
2023-05-06T22:03:31.386Z,53.20
2023-05-06T22:08:34.262Z,53.00
2023-05-06T22:13:38.390Z,52.90
2023-05-06T22:18:42.644Z,52.90
2023-05-06T22:23:45.443Z,53.00
2023-05-06T22:28:49.856Z,53.20
2023-05-06T22:33:55.444Z,53.00
2023-05-06T22:38:58.502Z,53.40
2023-05-06T22:44:02.841Z,53.20
2023-05-06T22:49:05.706Z,53.10
2023-05-06T22:54:08.592Z,53.30
2023-05-06T22:59:13.299Z,53.40
2023-05-06T23:04:16.299Z,53.20
2023-05-06T23:09:19.256Z,53.10
2023-05-06T23:14:23.742Z,53.20
2023-05-06T23:19:26.892Z,53.30
2023-05-06T23:24:29.725Z,53.20
2023-05-06T23:29:33.869Z,53.10
2023-05-06T23:34:36.674Z,53.30
2023-05-06T23:39:40.323Z,53.20
2023-05-06T23:44:44.547Z,53.10
2023-05-06T23:49:47.340Z,53.40
2023-05-06T23:54:50.188Z,53.10
2023-05-06T23:59:54.393Z,53.30
